Time;durP1;ratioP1;P1;durP2;ratioP2;P2;SDS_P1;SDS_P2;PMS_P1;PMS_P2;Temp;Humidity;BMP_temperature;BMP_pressure;BME280_temperature;BME280_humidity;BME280_pressure;Samples;Min_cycle;Max_cycle;Signal;HPM_P1;HPM_P2
2023/05/06 00:02:25;;;;;;;7.85;4.18;;;;;;;;;;4941596;28;95285;-78
2023/05/06 00:04:51;;;;;;;8.32;4.20;;;;;;;;;;4951367;28;92407;-80
2023/05/06 00:07:18;;;;;;;9.27;5.45;;;;;;;;;;4969720;28;92436;-80
2023/05/06 00:09:44;;;;;;;10.15;5.28;;;;;;;;;;4967877;28;95069;-78
2023/05/06 00:12:11;;;;;;;9.00;4.82;;;;;;;;;;4963546;28;92721;-79
2023/05/06 00:14:38;;;;;;;9.70;4.97;;;;;;;;;;4972686;28;93744;-79
2023/05/06 00:17:04;;;;;;;7.68;3.58;;;;;;;;;;4981392;28;93508;-79
2023/05/06 00:19:31;;;;;;;6.88;3.20;;;;;;;;;;4980442;28;92707;-80
2023/05/06 00:21:57;;;;;;;6.70;3.28;;;;;;;;;;4974726;28;93087;-79
2023/05/06 00:24:24;;;;;;;6.38;2.97;;;;;;;;;;4974358;28;94212;-79
2023/05/06 00:26:51;;;;;;;6.53;2.92;;;;;;;;;;4969659;28;91723;-79
2023/05/06 00:29:17;;;;;;;5.55;2.55;;;;;;;;;;4961590;28;92431;-80
2023/05/06 00:31:44;;;;;;;6.32;2.58;;;;;;;;;;4970973;28;93036;-79
2023/05/06 00:34:11;;;;;;;4.95;2.60;;;;;;;;;;4971956;28;94908;-79
2023/05/06 00:36:38;;;;;;;6.63;2.35;;;;;;;;;;4950543;28;93102;-80
2023/05/06 00:39:04;;;;;;;5.55;2.30;;;;;;;;;;4968955;28;92524;-80
2023/05/06 00:41:34;;;;;;;4.72;2.30;;;;;;;;;;4963369;28;92553;-79
2023/05/06 00:44:01;;;;;;;4.78;2.22;;;;;;;;;;4964084;28;92986;-79
2023/05/06 00:46:27;;;;;;;6.10;2.40;;;;;;;;;;4964776;28;92388;-79
2023/05/06 00:48:54;;;;;;;5.32;2.20;;;;;;;;;;4971089;28;91910;-79
2023/05/06 00:51:21;;;;;;;7.97;2.60;;;;;;;;;;4976131;28;94032;-79
2023/05/06 00:53:48;;;;;;;4.20;2.22;;;;;;;;;;4977317;28;92339;-80
2023/05/06 00:56:16;;;;;;;7.22;2.30;;;;;;;;;;4965744;28;92575;-80
2023/05/06 00:58:46;;;;;;;8.13;2.40;;;;;;;;;;4975318;28;94657;-79
2023/05/06 01:01:13;;;;;;;5.22;2.00;;;;;;;;;;4969970;28;94281;-80
2023/05/06 01:03:39;;;;;;;5.32;2.00;;;;;;;;;;4966331;28;92352;-80
2023/05/06 01:06:06;;;;;;;4.75;2.10;;;;;;;;;;4955420;28;92533;-79
2023/05/06 01:08:35;;;;;;;5.80;2.17;;;;;;;;;;4943942;28;92296;-79
2023/05/06 01:11:06;;;;;;;7.03;2.30;;;;;;;;;;4946237;28;93259;-80
2023/05/06 01:13:35;;;;;;;4.72;2.00;;;;;;;;;;4955339;28;92383;-80
2023/05/06 01:16:03;;;;;;;5.10;2.25;;;;;;;;;;4950779;28;92355;-80
2023/05/06 01:18:31;;;;;;;4.63;2.00;;;;;;;;;;4949089;28;92511;-80
2023/05/06 01:20:58;;;;;;;4.90;2.20;;;;;;;;;;4945720;28;92960;-80
2023/05/06 01:23:25;;;;;;;5.65;2.30;;;;;;;;;;4948907;28;95389;-81
2023/05/06 01:25:52;;;;;;;8.05;2.33;;;;;;;;;;4950859;28;92455;-81
2023/05/06 01:28:18;;;;;;;6.43;2.28;;;;;;;;;;4950760;28;92684;-81
2023/05/06 01:30:50;;;;;;;5.65;2.17;;;;;;;;;;4950614;28;97349;-81
2023/05/06 01:33:19;;;;;;;4.97;2.00;;;;;;;;;;4951104;28;92478;-81
2023/05/06 01:35:52;;;;;;;5.05;2.40;;;;;;;;;;4953979;28;92936;-80
2023/05/06 01:38:37;;;;;;;4.72;2.08;;;;;;;;;;4949803;28;92479;-79
2023/05/06 01:41:04;;;;;;;5.78;2.20;;;;;;;;;;4953664;28;91984;-81
2023/05/06 01:43:33;;;;;;;5.25;2.10;;;;;;;;;;4953485;28;93004;-81
2023/05/06 01:46:01;;;;;;;5.35;2.17;;;;;;;;;;4951569;28;92428;-81
2023/05/06 01:48:30;;;;;;;6.72;2.22;;;;;;;;;;4937795;28;95883;-80
2023/05/06 01:50:57;;;;;;;4.15;2.10;;;;;;;;;;4949047;28;93093;-81
2023/05/06 01:53:24;;;;;;;;;;;;;;;;;;4949447;28;92716;-81
2023/05/06 01:55:51;;;;;;;5.15;2.30;;;;;;;;;;4950829;28;92574;-81
2023/05/06 01:58:17;;;;;;;5.07;2.08;;;;;;;;;;4952027;28;94065;-80
2023/05/06 02:00:44;;;;;;;4.97;1.98;;;;;;;;;;4985036;28;97373;-80
2023/05/06 02:03:11;;;;;;;6.68;2.40;;;;;;;;;;4961690;28;94328;-81
2023/05/06 02:05:37;;;;;;;4.68;2.03;;;;;;;;;;4955302;28;92109;-81
2023/05/06 02:08:04;;;;;;;5.30;2.22;;;;;;;;;;4949364;28;94857;-81
2023/05/06 02:10:31;;;;;;;4.38;2.08;;;;;;;;;;4947455;28;95922;-80
2023/05/06 02:13:02;;;;;;;6.15;2.13;;;;;;;;;;4953088;28;95233;-81
2023/05/06 02:15:29;;;;;;;5.25;2.20;;;;;;;;;;4967081;28;98126;-81
2023/05/06 02:17:56;;;;;;;4.70;2.13;;;;;;;;;;4966923;28;95571;-81
2023/05/06 02:20:24;;;;;;;5.13;1.95;;;;;;;;;;4952183;28;92523;-79
2023/05/06 02:22:51;;;;;;;4.85;2.10;;;;;;;;;;4967445;28;94068;-80
2023/05/06 02:25:17;;;;;;;5.72;2.20;;;;;;;;;;4951710;28;92829;-81
2023/05/06 02:27:44;;;;;;;4.63;2.20;;;;;;;;;;4967125;28;92987;-81
2023/05/06 02:30:10;;;;;;;5.20;2.25;;;;;;;;;;4963211;28;93297;-81
2023/05/06 02:32:37;;;;;;;4.43;2.15;;;;;;;;;;4967871;28;92814;-80
2023/05/06 02:35:04;;;;;;;6.45;2.40;;;;;;;;;;4967522;28;93081;-80
2023/05/06 02:37:30;;;;;;;5.68;2.13;;;;;;;;;;4969270;28;95912;-82
2023/05/06 02:39:59;;;;;;;6.45;2.30;;;;;;;;;;4969670;28;93105;-81
2023/05/06 02:42:25;;;;;;;6.18;2.20;;;;;;;;;;4974448;28;92385;-81
2023/05/06 02:44:52;;;;;;;5.53;2.20;;;;;;;;;;4968019;28;92775;-81
2023/05/06 02:47:18;;;;;;;5.00;2.22;;;;;;;;;;4958656;28;95297;-81
2023/05/06 02:49:45;;;;;;;6.07;2.40;;;;;;;;;;4971389;28;93127;-80
2023/05/06 02:52:12;;;;;;;4.72;2.20;;;;;;;;;;4969559;28;92629;-80
2023/05/06 02:54:38;;;;;;;5.60;2.20;;;;;;;;;;4968600;28;92644;-81
2023/05/06 02:57:05;;;;;;;5.85;2.10;;;;;;;;;;4958520;28;93359;-83
2023/05/06 02:59:31;;;;;;;4.75;1.95;;;;;;;;;;4956964;28;92419;-83
2023/05/06 03:01:58;;;;;;;5.55;2.13;;;;;;;;;;4945098;28;94799;-82
2023/05/06 03:04:24;;;;;;;5.53;1.90;;;;;;;;;;4966939;28;92884;-81
2023/05/06 03:06:51;;;;;;;5.38;2.05;;;;;;;;;;4970223;28;92688;-82
2023/05/06 03:09:17;;;;;;;3.53;1.88;;;;;;;;;;4964649;28;95637;-81
2023/05/06 03:11:44;;;;;;;3.33;1.65;;;;;;;;;;4952128;28;92939;-83
2023/05/06 03:14:10;;;;;;;4.72;1.90;;;;;;;;;;4947706;28;92805;-83
2023/05/06 03:16:37;;;;;;;6.22;1.92;;;;;;;;;;4968692;28;92887;-83
2023/05/06 03:19:04;;;;;;;4.45;2.00;;;;;;;;;;4971648;28;92196;-83
2023/05/06 03:21:32;;;;;;;3.95;1.83;;;;;;;;;;4945332;28;94309;-83
2023/05/06 03:23:58;;;;;;;5.50;1.73;;;;;;;;;;4964258;28;96245;-83
2023/05/06 03:26:27;;;;;;;3.83;1.60;;;;;;;;;;4963866;28;95314;-83
2023/05/06 03:28:54;;;;;;;2.85;1.42;;;;;;;;;;4960046;28;95897;-83
2023/05/06 03:31:21;;;;;;;5.22;1.80;;;;;;;;;;4966968;28;93002;-83
2023/05/06 03:33:49;;;;;;;3.90;1.60;;;;;;;;;;4967861;28;95664;-83
2023/05/06 03:36:15;;;;;;;3.58;1.60;;;;;;;;;;4956552;28;96196;-83
2023/05/06 03:38:46;;;;;;;2.65;1.50;;;;;;;;;;4967807;28;94685;-83
2023/05/06 03:41:12;;;;;;;4.63;1.52;;;;;;;;;;4965360;28;92735;-83
2023/05/06 03:43:39;;;;;;;3.53;1.60;;;;;;;;;;4959903;28;95096;-83
2023/05/06 03:46:06;;;;;;;3.90;1.60;;;;;;;;;;4963164;28;92739;-83
2023/05/06 03:48:34;;;;;;;2.97;1.50;;;;;;;;;;4972205;28;94283;-83
2023/05/06 03:51:04;;;;;;;2.95;1.50;;;;;;;;;;4972567;28;95282;-83
2023/05/06 03:53:31;;;;;;;4.30;1.73;;;;;;;;;;4984670;28;97607;-83
2023/05/06 03:55:57;;;;;;;4.00;1.80;;;;;;;;;;4974168;28;93419;-82
2023/05/06 03:58:24;;;;;;;3.38;1.73;;;;;;;;;;4975718;28;92618;-83
2023/05/06 04:00:50;;;;;;;5.38;1.77;;;;;;;;;;4964013;28;95704;-83
2023/05/06 04:03:17;;;;;;;4.70;2.00;;;;;;;;;;4971317;28;95505;-83
2023/05/06 04:05:48;;;;;;;3.65;1.90;;;;;;;;;;4953742;28;93093;-82
2023/05/06 04:08:18;;;;;;;5.03;2.00;;;;;;;;;;4956343;28;92639;-81
2023/05/06 04:10:45;;;;;;;5.22;2.10;;;;;;;;;;4952214;28;92961;-81
2023/05/06 04:13:18;;;;;;;4.05;1.90;;;;;;;;;;4955958;28;93909;-82
2023/05/06 04:15:45;;;;;;;4.15;2.00;;;;;;;;;;4952570;28;94910;-81
2023/05/06 04:18:18;;;;;;;4.47;2.03;;;;;;;;;;4952942;28;92556;-81
2023/05/06 04:20:52;;;;;;;4.68;1.75;;;;;;;;;;4954076;28;99982;-83
2023/05/06 04:23:19;;;;;;;4.90;2.30;;;;;;;;;;4956896;28;95888;-83
2023/05/06 04:25:49;;;;;;;5.65;2.00;;;;;;;;;;4951962;28;92962;-82
2023/05/06 04:28:18;;;;;;;6.78;2.10;;;;;;;;;;4938752;28;95291;-81
2023/05/06 04:30:48;;;;;;;10.43;2.40;;;;;;;;;;4953698;28;97423;-83
2023/05/06 04:33:15;;;;;;;9.82;2.15;;;;;;;;;;4952596;28;92295;-82
2023/05/06 04:35:48;;;;;;;10.15;2.40;;;;;;;;;;4933019;28;95284;-80
2023/05/06 04:38:15;;;;;;;8.57;2.45;;;;;;;;;;4948489;28;92665;-80
2023/05/06 04:40:43;;;;;;;5.53;2.20;;;;;;;;;;4947283;28;95080;-79
2023/05/06 04:43:10;;;;;;;6.90;2.47;;;;;;;;;;4950729;28;94908;-80
2023/05/06 04:45:51;;;;;;;7.68;2.72;;;;;;;;;;4949729;28;92846;-80
2023/05/06 04:48:22;;;;;;;7.00;2.70;;;;;;;;;;4942998;28;95652;-79
2023/05/06 04:50:52;;;;;;;6.30;2.70;;;;;;;;;;4948765;28;95398;-80
2023/05/06 04:53:18;;;;;;;6.00;2.45;;;;;;;;;;4936284;28;92902;-80
2023/05/06 04:55:45;;;;;;;5.53;2.50;;;;;;;;;;4948984;28;95871;-80
2023/05/06 04:58:12;;;;;;;6.20;2.95;;;;;;;;;;4943032;28;92219;-80
2023/05/06 05:00:38;;;;;;;7.55;2.60;;;;;;;;;;4944623;28;95342;-79
2023/05/06 05:03:05;;;;;;;6.18;2.60;;;;;;;;;;4948205;28;95008;-80
2023/05/06 05:05:33;;;;;;;6.50;2.63;;;;;;;;;;4945461;28;95336;-80
2023/05/06 05:08:00;;;;;;;7.05;2.70;;;;;;;;;;4949329;28;97305;-79
2023/05/06 05:10:29;;;;;;;7.95;2.78;;;;;;;;;;4949250;28;96191;-79
2023/05/06 05:12:56;;;;;;;7.03;3.17;;;;;;;;;;4954343;28;92377;-79
2023/05/06 05:15:22;;;;;;;7.07;3.33;;;;;;;;;;4951274;28;93122;-79
2023/05/06 05:17:49;;;;;;;5.95;3.08;;;;;;;;;;4949597;28;92907;-80
2023/05/06 05:20:17;;;;;;;7.00;2.83;;;;;;;;;;4942172;28;94248;-79
2023/05/06 05:22:44;;;;;;;7.10;3.00;;;;;;;;;;4949209;28;100196;-79
2023/05/06 05:25:11;;;;;;;6.05;2.80;;;;;;;;;;4949341;28;92707;-79
2023/05/06 05:27:38;;;;;;;7.00;2.90;;;;;;;;;;4948885;28;94355;-79
2023/05/06 05:30:05;;;;;;;6.47;2.92;;;;;;;;;;4947528;28;98050;-79
2023/05/06 05:32:35;;;;;;;5.65;2.70;;;;;;;;;;4948099;28;93043;-79
2023/05/06 05:35:02;;;;;;;6.38;2.80;;;;;;;;;;4953317;28;93115;-79
2023/05/06 05:37:28;;;;;;;6.80;3.08;;;;;;;;;;4950597;28;94836;-79
2023/05/06 05:39:56;;;;;;;6.15;3.28;;;;;;;;;;4968589;28;95318;-79
2023/05/06 05:42:22;;;;;;;5.82;2.67;;;;;;;;;;4967379;28;95262;-78
2023/05/06 05:44:49;;;;;;;5.90;2.53;;;;;;;;;;4967054;28;92598;-79
2023/05/06 05:47:16;;;;;;;6.20;2.90;;;;;;;;;;4946625;28;96135;-79
2023/05/06 05:49:43;;;;;;;6.60;2.75;;;;;;;;;;4954263;28;96328;-79
2023/05/06 05:52:10;;;;;;;6.65;3.00;;;;;;;;;;4950864;28;92794;-80
2023/05/06 05:54:37;;;;;;;9.10;3.60;;;;;;;;;;4946843;28;95159;-79
2023/05/06 05:57:04;;;;;;;7.38;3.58;;;;;;;;;;4953873;28;93602;-79
2023/05/06 05:59:31;;;;;;;9.68;3.90;;;;;;;;;;4953679;28;95427;-80
2023/05/06 06:02:01;;;;;;;7.63;3.75;;;;;;;;;;4950492;28;94197;-80
2023/05/06 06:04:28;;;;;;;9.07;4.35;;;;;;;;;;4949719;28;94083;-80
2023/05/06 06:07:00;;;;;;;8.48;3.80;;;;;;;;;;4949795;28;95778;-80
2023/05/06 06:09:29;;;;;;;8.35;4.15;;;;;;;;;;4953945;28;93658;-79
2023/05/06 06:11:57;;;;;;;11.45;5.43;;;;;;;;;;4958315;28;91972;-79
2023/05/06 06:14:24;;;;;;;9.70;4.85;;;;;;;;;;4950612;28;92942;-79
2023/05/06 06:16:50;;;;;;;10.55;6.07;;;;;;;;;;4950919;28;95443;-79
2023/05/06 06:19:17;;;;;;;10.73;5.65;;;;;;;;;;4958668;28;94770;-79
2023/05/06 06:21:44;;;;;;;12.10;7.03;;;;;;;;;;4971172;28;93150;-80
2023/05/06 06:24:11;;;;;;;10.95;6.18;;;;;;;;;;4974192;28;92337;-80
2023/05/06 06:26:38;;;;;;;13.50;7.05;;;;;;;;;;4969918;28;92566;-78
2023/05/06 06:29:04;;;;;;;12.32;6.70;;;;;;;;;;4971027;28;93259;-78
2023/05/06 06:31:32;;;;;;;12.10;6.85;;;;;;;;;;4972475;28;92413;-78
2023/05/06 06:33:59;;;;;;;12.50;7.43;;;;;;;;;;4960189;28;92315;-79
2023/05/06 06:36:26;;;;;;;16.02;6.50;;;;;;;;;;4958419;28;91615;-78
2023/05/06 06:38:53;;;;;;;12.65;6.70;;;;;;;;;;4950844;28;92443;-78
2023/05/06 06:41:20;;;;;;;11.57;6.63;;;;;;;;;;4955356;28;92737;-78
2023/05/06 06:43:46;;;;;;;12.35;6.80;;;;;;;;;;4950070;28;94953;-77
2023/05/06 06:46:15;;;;;;;13.15;7.07;;;;;;;;;;4950293;28;95132;-78
2023/05/06 06:48:42;;;;;;;11.27;6.78;;;;;;;;;;4949106;28;93921;-78
2023/05/06 06:51:08;;;;;;;10.70;6.35;;;;;;;;;;4948928;28;99569;-78
2023/05/06 06:53:35;;;;;;;12.88;7.18;;;;;;;;;;4949430;28;93837;-78
2023/05/06 06:56:02;;;;;;;12.80;7.38;;;;;;;;;;4949964;28;93145;-78
2023/05/06 06:58:28;;;;;;;11.32;6.63;;;;;;;;;;4941188;28;92573;-77
2023/05/06 07:00:56;;;;;;;10.60;6.15;;;;;;;;;;4952064;28;91595;-78
2023/05/06 07:03:22;;;;;;;11.48;6.20;;;;;;;;;;4948729;28;92789;-78
2023/05/06 07:05:49;;;;;;;11.32;6.45;;;;;;;;;;4947551;28;94548;-78
2023/05/06 07:08:15;;;;;;;12.05;6.45;;;;;;;;;;4945610;28;95801;-78
2023/05/06 07:10:42;;;;;;;9.77;5.70;;;;;;;;;;4945935;28;92454;-79
2023/05/06 07:13:09;;;;;;;10.80;5.68;;;;;;;;;;4939786;28;92973;-78
2023/05/06 07:15:35;;;;;;;10.32;5.65;;;;;;;;;;4933171;28;93212;-78
2023/05/06 07:18:02;;;;;;;10.98;5.80;;;;;;;;;;4947735;28;92414;-79
2023/05/06 07:20:28;;;;;;;9.52;5.30;;;;;;;;;;4946670;28;94004;-80
2023/05/06 07:22:55;;;;;;;7.50;3.65;;;;;;;;;;4948834;28;93149;-81
2023/05/06 07:25:21;;;;;;;6.28;2.90;;;;;;;;;;4947006;28;92895;-81
2023/05/06 07:27:49;;;;;;;10.95;2.83;;;;;;;;;;4949118;28;93274;-81
2023/05/06 07:30:15;;;;;;;6.22;2.60;;;;;;;;;;4948840;28;92418;-81
2023/05/06 07:32:42;;;;;;;5.85;2.47;;;;;;;;;;4946856;28;97693;-80
2023/05/06 07:35:08;;;;;;;5.55;2.35;;;;;;;;;;4954651;28;92975;-81
2023/05/06 07:37:35;;;;;;;7.15;2.38;;;;;;;;;;4964953;28;92461;-81
2023/05/06 07:40:02;;;;;;;5.75;2.30;;;;;;;;;;4955880;28;93092;-82
2023/05/06 07:42:31;;;;;;;5.68;2.50;;;;;;;;;;4940549;28;96051;-82
2023/05/06 07:44:57;;;;;;;4.75;2.38;;;;;;;;;;4961783;28;92464;-82
2023/05/06 07:47:28;;;;;;;5.18;2.40;;;;;;;;;;4963713;28;93643;-83
2023/05/06 07:49:55;;;;;;;6.00;2.33;;;;;;;;;;4955145;28;91779;-81
2023/05/06 07:52:22;;;;;;;5.85;2.50;;;;;;;;;;4968038;28;92511;-81
2023/05/06 07:54:48;;;;;;;5.60;2.30;;;;;;;;;;4963551;28;92399;-81
2023/05/06 07:57:15;;;;;;;5.78;2.38;;;;;;;;;;4954872;28;95273;-82
2023/05/06 07:59:42;;;;;;;5.32;2.40;;;;;;;;;;4951918;28;96121;-82
2023/05/06 08:02:09;;;;;;;4.85;2.40;;;;;;;;;;4949241;28;93574;-83
2023/05/06 08:04:36;;;;;;;6.03;2.35;;;;;;;;;;4962319;28;92417;-81
2023/05/06 08:07:02;;;;;;;6.20;2.40;;;;;;;;;;4961833;28;93416;-82
2023/05/06 08:09:29;;;;;;;5.25;2.28;;;;;;;;;;4966695;28;93025;-82
2023/05/06 08:11:55;;;;;;;6.35;2.30;;;;;;;;;;4962241;28;94075;-81
2023/05/06 08:14:22;;;;;;;4.38;2.08;;;;;;;;;;4946410;28;93726;-79
2023/05/06 08:16:49;;;;;;;6.70;2.40;;;;;;;;;;4948564;28;92491;-80
2023/05/06 08:19:16;;;;;;;3.97;2.03;;;;;;;;;;4949120;28;93288;-80
2023/05/06 08:21:42;;;;;;;7.32;2.30;;;;;;;;;;4941082;28;94950;-80
2023/05/06 08:24:12;;;;;;;4.35;2.22;;;;;;;;;;4951050;28;99882;-80
2023/05/06 08:26:39;;;;;;;4.30;2.10;;;;;;;;;;4947170;28;92977;-81
2023/05/06 08:29:06;;;;;;;4.18;2.10;;;;;;;;;;4938354;28;93505;-80
2023/05/06 08:31:33;;;;;;;5.85;2.65;;;;;;;;;;4948849;28;93023;-80
2023/05/06 08:34:00;;;;;;;5.10;2.20;;;;;;;;;;4947588;28;93614;-80
2023/05/06 08:36:26;;;;;;;5.30;2.25;;;;;;;;;;4948778;28;92511;-80
2023/05/06 08:38:52;;;;;;;5.53;2.25;;;;;;;;;;4950679;28;93960;-81
2023/05/06 08:41:20;;;;;;;5.72;2.33;;;;;;;;;;4951562;28;93446;-80
2023/05/06 08:43:47;;;;;;;4.15;1.95;;;;;;;;;;4951740;28;92551;-81
2023/05/06 08:46:14;;;;;;;5.80;2.42;;;;;;;;;;4950820;28;95557;-81
2023/05/06 08:48:41;;;;;;;7.10;1.90;;;;;;;;;;4949283;28;94546;-81
2023/05/06 08:51:08;;;;;;;6.32;2.45;;;;;;;;;;4954190;28;93158;-81
2023/05/06 08:53:34;;;;;;;5.20;2.20;;;;;;;;;;4950123;28;96407;-81
2023/05/06 08:56:05;;;;;;;4.18;2.10;;;;;;;;;;4950962;28;92486;-80
2023/05/06 08:58:33;;;;;;;7.07;2.20;;;;;;;;;;4950960;28;94223;-81
2023/05/06 09:01:01;;;;;;;5.15;2.10;;;;;;;;;;4952203;28;92742;-81
2023/05/06 09:03:28;;;;;;;4.25;1.95;;;;;;;;;;4949840;28;91764;-81
2023/05/06 09:05:55;;;;;;;5.43;2.40;;;;;;;;;;4949788;28;93581;-81
2023/05/06 09:08:22;;;;;;;3.53;2.03;;;;;;;;;;4952070;28;93267;-80
2023/05/06 09:10:49;;;;;;;4.75;2.03;;;;;;;;;;4952703;28;94928;-80
2023/05/06 09:13:17;;;;;;;3.90;2.08;;;;;;;;;;4949879;28;93312;-81
2023/05/06 09:15:46;;;;;;;4.45;1.80;;;;;;;;;;4951215;28;92482;-80
2023/05/06 09:18:12;;;;;;;5.10;2.22;;;;;;;;;;4951401;28;93248;-81
2023/05/06 09:20:40;;;;;;;4.30;2.05;;;;;;;;;;4951705;28;92994;-81
2023/05/06 09:23:12;;;;;;;3.88;2.00;;;;;;;;;;4951010;28;92543;-80
2023/05/06 09:25:40;;;;;;;5.80;2.03;;;;;;;;;;4952313;28;93041;-81
2023/05/06 09:28:08;;;;;;;3.70;1.90;;;;;;;;;;4950340;28;92183;-81
2023/05/06 09:30:41;;;;;;;5.78;2.40;;;;;;;;;;4951480;28;92996;-80
2023/05/06 09:33:08;;;;;;;4.68;2.22;;;;;;;;;;4954032;28;93078;-81
2023/05/06 09:35:39;;;;;;;4.03;2.10;;;;;;;;;;4950292;28;95141;-81
2023/05/06 09:38:06;;;;;;;4.18;2.20;;;;;;;;;;4949229;28;98205;-82
2023/05/06 09:40:36;;;;;;;4.55;2.22;;;;;;;;;;4950540;28;93725;-82
2023/05/06 09:43:03;;;;;;;4.50;2.00;;;;;;;;;;4950944;28;92433;-82
2023/05/06 09:45:30;;;;;;;5.47;2.00;;;;;;;;;;4951826;28;92859;-82
2023/05/06 09:47:57;;;;;;;4.15;1.88;;;;;;;;;;4948399;28;93159;-82
2023/05/06 09:50:24;;;;;;;4.32;1.95;;;;;;;;;;4948265;28;100651;-81
2023/05/06 09:52:51;;;;;;;4.32;2.10;;;;;;;;;;4949529;28;96932;-82
2023/05/06 09:55:18;;;;;;;3.97;1.90;;;;;;;;;;4953079;28;93077;-82
2023/05/06 09:57:45;;;;;;;4.28;1.95;;;;;;;;;;4949896;28;92857;-82
2023/05/06 10:00:13;;;;;;;4.28;2.10;;;;;;;;;;4947929;28;95507;-82
2023/05/06 10:02:40;;;;;;;5.18;2.50;;;;;;;;;;4949254;28;92803;-82
2023/05/06 10:05:11;;;;;;;4.57;2.08;;;;;;;;;;4951062;28;92685;-83
2023/05/06 10:07:39;;;;;;;4.28;2.10;;;;;;;;;;4950482;28;93608;-82
2023/05/06 10:10:06;;;;;;;;;;;;;;;;;;4948760;28;93156;-82
2023/05/06 10:12:34;;;;;;;4.32;2.10;;;;;;;;;;4951503;28;93462;-82
2023/05/06 10:15:03;;;;;;;3.38;1.80;;;;;;;;;;4947377;28;96242;-82
2023/05/06 10:17:30;;;;;;;5.70;2.20;;;;;;;;;;4955150;28;91727;-82
2023/05/06 10:19:58;;;;;;;3.30;1.73;;;;;;;;;;4934004;28;96277;-83
2023/05/06 10:22:42;;;;;;;4.15;1.75;;;;;;;;;;4951515;28;92593;-81
2023/05/06 10:25:15;;;;;;;4.15;1.95;;;;;;;;;;4950056;28;95416;-82
2023/05/06 10:27:43;;;;;;;4.00;1.85;;;;;;;;;;4951485;28;93516;-82
2023/05/06 10:30:11;;;;;;;11.02;6.53;;;;;;;;;;4951974;28;92931;-80
2023/05/06 10:32:42;;;;;;;12.52;6.95;;;;;;;;;;4949398;28;96076;-81
2023/05/06 10:35:13;;;;;;;11.02;5.93;;;;;;;;;;4955902;28;93254;-80
2023/05/06 10:37:41;;;;;;;10.38;4.10;;;;;;;;;;4960859;28;92961;-80
2023/05/06 10:40:08;;;;;;;9.55;4.20;;;;;;;;;;4973114;28;93843;-80
2023/05/06 10:42:35;;;;;;;8.55;3.92;;;;;;;;;;4960996;28;91947;-80
2023/05/06 10:45:03;;;;;;;9.77;4.40;;;;;;;;;;4956619;28;92859;-80
2023/05/06 10:47:52;;;;;;;11.80;5.50;;;;;;;;;;4967852;28;95755;-80
2023/05/06 10:50:20;;;;;;;11.15;5.20;;;;;;;;;;4968537;28;94935;-81
2023/05/06 10:52:49;;;;;;;12.57;5.47;;;;;;;;;;4969978;28;99949;-81
2023/05/06 10:55:26;;;;;;;12.93;6.18;;;;;;;;;;4960602;28;95910;-81
2023/05/06 10:57:54;;;;;;;10.20;5.55;;;;;;;;;;4969886;28;92510;-80
2023/05/06 11:00:21;;;;;;;11.13;4.70;;;;;;;;;;4970010;28;93640;-79
2023/05/06 11:02:59;;;;;;;12.75;6.82;;;;;;;;;;4975974;28;94260;-79
2023/05/06 11:05:26;;;;;;;15.27;7.07;;;;;;;;;;4971099;28;92751;-79
2023/05/06 11:08:06;;;;;;;8.95;4.20;;;;;;;;;;4971552;28;92221;-81
2023/05/06 11:10:32;;;;;;;10.20;4.60;;;;;;;;;;4962700;28;92500;-82
2023/05/06 11:13:22;;;;;;;10.68;5.40;;;;;;;;;;4948817;28;92871;-81
2023/05/06 11:15:50;;;;;;;9.68;4.93;;;;;;;;;;4961303;28;95789;-81
2023/05/06 11:18:40;;;;;;;10.80;5.63;;;;;;;;;;4968127;28;92501;-81
2023/05/06 11:21:06;;;;;;;11.77;5.30;;;;;;;;;;4970074;28;97345;-81
2023/05/06 11:23:48;;;;;;;11.00;5.35;;;;;;;;;;4958336;28;93469;-81
2023/05/06 11:26:15;;;;;;;10.40;4.70;;;;;;;;;;4947362;28;92485;-81
2023/05/06 11:28:42;;;;;;;11.60;6.88;;;;;;;;;;4967532;28;92851;-82
2023/05/06 11:31:08;;;;;;;;;;;;;;;;;;4933692;28;92613;-81
2023/05/06 11:33:36;;;;;;;9.85;5.30;;;;;;;;;;4950471;28;116277;-81
2023/05/06 11:36:03;;;;;;;9.98;4.80;;;;;;;;;;4930474;28;95085;-81
2023/05/06 11:38:40;;;;;;;8.00;2.72;;;;;;;;;;4948144;28;92594;-81
2023/05/06 11:41:06;;;;;;;9.90;4.82;;;;;;;;;;4948024;28;94992;-81
2023/05/06 11:43:33;;;;;;;6.65;2.72;;;;;;;;;;4949130;28;93216;-81
2023/05/06 11:45:59;;;;;;;9.30;3.72;;;;;;;;;;4953224;28;92526;-81
2023/05/06 11:48:26;;;;;;;7.78;3.25;;;;;;;;;;4946349;28;93286;-81
2023/05/06 11:50:53;;;;;;;9.48;3.60;;;;;;;;;;4937587;28;92500;-81
2023/05/06 11:53:21;;;;;;;10.02;3.90;;;;;;;;;;4939217;28;94077;-81
2023/05/06 11:55:50;;;;;;;8.88;3.72;;;;;;;;;;4948507;28;93003;-81
2023/05/06 11:58:26;;;;;;;8.55;4.13;;;;;;;;;;4949174;28;91693;-81
2023/05/06 12:00:55;;;;;;;8.70;4.20;;;;;;;;;;4963914;28;96470;-81
2023/05/06 12:03:23;;;;;;;9.43;4.88;;;;;;;;;;4943741;28;93651;-81
2023/05/06 12:05:50;;;;;;;14.75;6.95;;;;;;;;;;4932945;28;94939;-81
2023/05/06 12:08:18;;;;;;;;;;;;;;;;;;4963456;28;94156;-80
2023/05/06 12:11:02;;;;;;;8.18;4.47;;;;;;;;;;4969590;28;93477;-81
2023/05/06 12:13:29;;;;;;;7.68;3.30;;;;;;;;;;4970449;28;93829;-81
2023/05/06 12:15:57;;;;;;;8.85;4.32;;;;;;;;;;4971355;28;93912;-82
2023/05/06 12:18:24;;;;;;;9.93;4.80;;;;;;;;;;4970338;28;92486;-81
2023/05/06 12:20:54;;;;;;;8.80;4.00;;;;;;;;;;4962392;28;95873;-81
2023/05/06 12:23:20;;;;;;;13.60;7.25;;;;;;;;;;4967044;28;93294;-81
2023/05/06 12:26:08;;;;;;;13.63;7.50;;;;;;;;;;4963940;28;92649;-81
2023/05/06 12:28:35;;;;;;;12.60;7.70;;;;;;;;;;4964428;28;93610;-81
2023/05/06 12:31:21;;;;;;;8.15;4.25;;;;;;;;;;4949326;28;96148;-82
2023/05/06 12:33:48;;;;;;;9.32;4.22;;;;;;;;;;4949744;28;95330;-85
2023/05/06 12:36:16;;;;;;;13.30;8.95;;;;;;;;;;4949448;28;93564;-83
2023/05/06 12:38:52;;;;;;;15.55;8.57;;;;;;;;;;4942288;28;93974;-82
2023/05/06 12:41:19;;;;;;;12.75;7.35;;;;;;;;;;4942933;28;94191;-83
2023/05/06 12:43:46;;;;;;;13.50;7.75;;;;;;;;;;4946837;28;93012;-82
2023/05/06 12:46:14;;;;;;;14.38;10.05;;;;;;;;;;4949486;28;92746;-82
2023/05/06 12:48:54;;;;;;;11.48;6.43;;;;;;;;;;4949862;28;92662;-82
2023/05/06 12:51:20;;;;;;;15.27;9.30;;;;;;;;;;4946533;28;93170;-82
2023/05/06 12:53:47;;;;;;;14.05;9.30;;;;;;;;;;4945568;28;93462;-82
2023/05/06 12:56:13;;;;;;;12.35;7.53;;;;;;;;;;4947327;28;96329;-82
2023/05/06 12:58:40;;;;;;;10.43;5.07;;;;;;;;;;4949346;28;92932;-82
2023/05/06 13:01:06;;;;;;;12.40;7.53;;;;;;;;;;4948442;28;93753;-82
2023/05/06 13:03:34;;;;;;;12.65;8.10;;;;;;;;;;4945508;28;93137;-82
2023/05/06 13:06:03;;;;;;;10.95;6.85;;;;;;;;;;4949838;28;92503;-82
2023/05/06 13:08:30;;;;;;;9.02;3.55;;;;;;;;;;4946983;28;93501;-81
2023/05/06 13:10:58;;;;;;;11.27;6.15;;;;;;;;;;4945717;28;93075;-81
2023/05/06 13:13:25;;;;;;;10.40;4.70;;;;;;;;;;4947284;28;91947;-81
2023/05/06 13:15:51;;;;;;;9.95;5.55;;;;;;;;;;4951110;28;94089;-81
2023/05/06 13:18:18;;;;;;;10.40;5.35;;;;;;;;;;4948130;28;92508;-82
2023/05/06 13:20:45;;;;;;;10.88;5.03;;;;;;;;;;4946719;28;97223;-81
2023/05/06 13:23:11;;;;;;;10.55;5.45;;;;;;;;;;4950541;28;93294;-80
2023/05/06 13:25:38;;;;;;;26.75;3.67;;;;;;;;;;4948491;28;93318;-83
2023/05/06 13:28:24;;;;;;;9.60;3.88;;;;;;;;;;4940879;28;92704;-83
2023/05/06 13:30:51;;;;;;;8.73;4.30;;;;;;;;;;4951088;28;94527;-83
2023/05/06 13:33:17;;;;;;;8.73;4.50;;;;;;;;;;4958927;28;92538;-83
2023/05/06 13:35:44;;;;;;;8.10;4.57;;;;;;;;;;4971560;28;93035;-83
2023/05/06 13:38:10;;;;;;;8.15;3.88;;;;;;;;;;4973840;28;92136;-83
2023/05/06 13:40:37;;;;;;;11.32;3.78;;;;;;;;;;4958420;28;92686;-82
2023/05/06 13:43:03;;;;;;;8.15;4.00;;;;;;;;;;4971620;28;92534;-82
2023/05/06 13:45:31;;;;;;;7.97;2.80;;;;;;;;;;4970442;28;95050;-82
2023/05/06 13:47:58;;;;;;;8.02;3.55;;;;;;;;;;4971974;28;94938;-81
2023/05/06 13:50:24;;;;;;;6.65;3.33;;;;;;;;;;4971012;28;92940;-82
2023/05/06 13:52:51;;;;;;;8.32;3.55;;;;;;;;;;4971598;28;92540;-82
2023/05/06 13:55:19;;;;;;;8.45;2.92;;;;;;;;;;4971995;28;92900;-82
2023/05/06 13:57:45;;;;;;;9.60;3.45;;;;;;;;;;4970392;28;93185;-83
2023/05/06 14:00:12;;;;;;;7.53;3.30;;;;;;;;;;4962779;28;92648;-81
2023/05/06 14:02:39;;;;;;;6.50;2.83;;;;;;;;;;4968324;28;98677;-83
2023/05/06 14:05:07;;;;;;;8.02;3.50;;;;;;;;;;4955723;28;93565;-82
2023/05/06 14:07:35;;;;;;;7.47;3.33;;;;;;;;;;4971921;28;95752;-84
2023/05/06 14:10:03;;;;;;;6.38;2.75;;;;;;;;;;4964592;28;96918;-84
2023/05/06 14:12:30;;;;;;;7.95;2.95;;;;;;;;;;4967333;28;92683;-81
2023/05/06 14:14:57;;;;;;;7.38;2.85;;;;;;;;;;4965989;28;93024;-83
2023/05/06 14:17:24;;;;;;;6.63;2.40;;;;;;;;;;4972192;28;92694;-86
2023/05/06 14:19:50;;;;;;;6.88;2.90;;;;;;;;;;4978480;28;92439;-85
2023/05/06 14:22:17;;;;;;;6.93;2.95;;;;;;;;;;4960327;28;93275;-84
2023/05/06 14:24:43;;;;;;;6.30;2.70;;;;;;;;;;4980815;28;92519;-84
2023/05/06 14:27:10;;;;;;;9.55;3.65;;;;;;;;;;4971364;28;92176;-83
2023/05/06 14:29:37;;;;;;;8.27;3.05;;;;;;;;;;4970778;28;93299;-84
2023/05/06 14:32:03;;;;;;;5.10;2.03;;;;;;;;;;4976625;28;92676;-85
2023/05/06 14:34:33;;;;;;;4.40;1.65;;;;;;;;;;4976346;28;95278;-82
2023/05/06 14:36:59;;;;;;;4.90;1.60;;;;;;;;;;4967284;28;93125;-84
2023/05/06 14:39:26;;;;;;;2.03;1.17;;;;;;;;;;4961612;28;92881;-85
2023/05/06 14:41:52;;;;;;;3.03;1.30;;;;;;;;;;4970306;28;95132;-85
2023/05/06 14:44:21;;;;;;;2.80;1.23;;;;;;;;;;4982834;28;92846;-84
2023/05/06 14:46:48;;;;;;;3.47;1.40;;;;;;;;;;4979042;28;92649;-85